Time;durP1;ratioP1;P1;durP2;ratioP2;P2;SDS_P1;SDS_P2;PMS_P1;PMS_P2;Temp;Humidity;BMP_temperature;BMP_pressure;BME280_temperature;BME280_humidity;BME280_pressure;Samples;Min_cycle;Max_cycle;Signal;HPM_P1;HPM_P2
2022/11/21 00:04:18;;;;;;;2.58;0.90;;;;;;;17.88;59.67;96083.13;10435346;28;20025;-30
2022/11/21 00:09:18;;;;;;;1.03;0.70;;;;;;;17.93;59.75;96071.25;10438049;28;20037;-30
2022/11/21 00:14:19;;;;;;;3.20;0.67;;;;;;;17.87;59.87;96067.94;10442863;28;20345;-30
2022/11/21 00:19:19;;;;;;;1.93;0.60;;;;;;;17.85;60.09;96072.19;10430954;28;20107;-30
2022/11/21 00:24:19;;;;;;;1.57;0.60;;;;;;;17.74;59.86;96053.72;10429248;28;20033;-30
2022/11/21 00:29:20;;;;;;;1.57;0.60;;;;;;;17.77;59.87;96059.59;10437329;28;20507;-30
2022/11/21 00:34:20;;;;;;;1.97;0.97;;;;;;;17.78;59.73;96047.78;10437859;28;20029;-29
2022/11/21 00:39:20;;;;;;;1.10;0.50;;;;;;;17.77;59.91;96035.97;10434921;28;20037;-30
2022/11/21 00:44:21;;;;;;;1.20;0.63;;;;;;;17.75;59.83;96025.03;10435096;28;20037;-30
2022/11/21 00:49:21;;;;;;;3.83;0.93;;;;;;;17.75;60.01;96022.47;10432510;28;20303;-31
2022/11/21 00:54:21;;;;;;;2.83;0.97;;;;;;;17.72;59.78;96009.84;10442009;28;20044;-29
2022/11/21 00:59:22;;;;;;;0.93;0.53;;;;;;;17.75;60.11;96005.59;10430771;28;20781;-30
2022/11/21 01:04:22;;;;;;;4.27;0.97;;;;;;;17.85;59.77;95978.50;10439430;28;20564;-30
2022/11/21 01:09:23;;;;;;;0.88;0.50;;;;;;;17.90;60.09;95964.13;10435506;28;20047;-30
2022/11/21 01:14:23;;;;;;;3.30;0.97;;;;;;;17.86;59.87;95958.25;10437368;28;20029;-30
2022/11/21 01:19:24;;;;;;;1.25;0.65;;;;;;;17.77;59.82;95937.22;10435691;28;20298;-30
2022/11/21 01:24:24;;;;;;;1.60;0.47;;;;;;;17.76;59.46;95920.38;10432242;28;20036;-30
2022/11/21 01:29:26;;;;;;;2.07;0.83;;;;;;;17.72;59.10;95923.75;10431971;28;20075;-30
2022/11/21 01:34:26;;;;;;;2.53;0.70;;;;;;;17.71;60.00;95937.28;10430822;28;20281;-29
2022/11/21 01:39:26;;;;;;;10.25;0.88;;;;;;;17.67;59.69;95925.53;10431955;28;20510;-30
2022/11/21 01:44:46;;;;;;;4.33;1.10;;;;;;;17.66;59.41;95949.16;10434011;28;20036;-30
2022/11/21 01:49:47;;;;;;;8.80;0.77;;;;;;;17.70;59.21;95960.91;10430782;28;20280;-30
2022/11/21 01:54:53;;;;;;;5.13;0.90;;;;;;;17.65;59.37;95938.19;10432159;28;20033;-29
2022/11/21 02:00:05;;;;;;;2.93;0.57;;;;;;;17.66;59.17;95933.97;10436764;28;20030;-29
2022/11/21 02:05:10;;;;;;;0.80;0.50;;;;;;;17.72;58.96;95928.81;10434016;28;20120;-30
2022/11/21 02:10:11;;;;;;;3.42;0.93;;;;;;;17.80;59.27;95932.13;10431105;28;20108;-30
2022/11/21 02:15:11;;;;;;;4.85;0.65;;;;;;;17.80;58.92;95906.81;10436411;28;20414;-31
2022/11/21 02:20:15;;;;;;;1.13;0.40;;;;;;;17.68;59.28;95901.88;10431542;28;20044;-30
2022/11/21 02:25:20;;;;;;;3.47;0.75;;;;;;;17.69;59.59;95911.16;10436011;28;20024;-29
2022/11/21 02:30:21;;;;;;;2.00;0.90;;;;;;;17.67;59.24;95890.09;10433704;28;20094;-30
2022/11/21 02:35:22;;;;;;;1.35;0.80;;;;;;;17.65;59.70;95901.94;10430937;28;20036;-30
2022/11/21 02:40:26;;;;;;;1.85;0.57;;;;;;;17.62;59.39;95907.84;10429180;28;20116;-30
2022/11/21 02:45:33;;;;;;;2.60;0.80;;;;;;;17.60;59.57;95891.00;10436385;28;20065;-30
2022/11/21 02:50:36;;;;;;;2.72;0.70;;;;;;;17.61;59.74;95890.13;10444692;28;20407;-30
2022/11/21 02:55:37;;;;;;;4.25;1.13;;;;;;;17.59;59.41;95866.53;10445198;28;20028;-29
2022/11/21 03:00:39;;;;;;;3.35;0.38;;;;;;;17.62;59.61;95858.91;10434251;28;20436;-30
2022/11/21 03:05:39;;;;;;;1.48;0.68;;;;;;;17.62;59.65;95854.69;10444574;28;20041;-30
2022/11/21 03:10:40;;;;;;;0.77;0.40;;;;;;;17.67;59.30;95855.47;10442011;28;20033;-29
2022/11/21 03:15:40;;;;;;;2.33;0.93;;;;;;;17.77;59.41;95857.06;10443955;28;20052;-30
2022/11/21 03:20:40;;;;;;;1.53;0.87;;;;;;;17.69;59.53;95842.81;10441331;28;20362;-31
2022/11/21 03:25:41;;;;;;;1.33;0.40;;;;;;;17.71;58.94;95861.34;10431143;28;20041;-30
2022/11/21 03:30:41;;;;;;;1.75;0.40;;;;;;;17.64;59.38;95849.59;10441790;28;20190;-30
2022/11/21 03:35:42;;;;;;;0.63;0.50;;;;;;;17.66;58.98;95837.78;10431715;28;20127;-31
2022/11/21 03:40:42;;;;;;;1.43;0.40;;;;;;;17.65;59.41;95846.25;10429074;28;20437;-30
2022/11/21 03:45:46;;;;;;;2.30;0.60;;;;;;;17.62;59.44;95854.69;10441080;28;20034;-28
2022/11/21 03:50:46;;;;;;;3.28;0.50;;;;;;;17.56;59.29;95861.53;10444739;28;20440;-29
2022/11/21 03:55:46;;;;;;;2.23;0.60;;;;;;;17.54;59.57;95860.66;10443191;28;20025;-29
2022/11/21 04:00:47;;;;;;;1.73;0.47;;;;;;;17.58;59.65;95875.00;10435110;28;20284;-30
2022/11/21 04:05:48;;;;;;;0.50;0.30;;;;;;;17.60;59.41;95881.72;10441916;28;20479;-31
2022/11/21 04:10:49;;;;;;;1.42;0.60;;;;;;;17.58;59.30;95890.19;10437975;28;20219;-30
2022/11/21 04:15:50;;;;;;;2.72;0.55;;;;;;;17.63;59.12;95878.28;10442231;28;20045;-30
2022/11/21 04:20:57;;;;;;;1.60;0.50;;;;;;;17.74;59.10;95887.47;10436740;28;20049;-30
2022/11/21 04:25:58;;;;;;;2.30;0.60;;;;;;;17.73;59.05;95890.03;10440674;28;20545;-31
2022/11/21 04:31:06;;;;;;;0.90;0.50;;;;;;;17.66;59.09;95888.41;10438436;28;20079;-30
2022/11/21 04:36:07;;;;;;;1.80;0.50;;;;;;;17.64;58.95;95879.97;10432235;28;20407;-30
2022/11/21 04:41:08;;;;;;;1.75;0.50;;;;;;;17.64;59.33;95882.50;10436670;28;20218;-29
2022/11/21 04:46:08;;;;;;;0.50;0.30;;;;;;;17.59;59.30;95891.84;10434236;28;21928;-29
2022/11/21 04:51:08;;;;;;;1.30;0.67;;;;;;;17.57;59.37;95886.78;10437825;28;20395;-29
2022/11/21 04:56:09;;;;;;;1.00;0.30;;;;;;;17.61;59.32;95890.13;10436250;28;20275;-30
2022/11/21 05:01:09;;;;;;;2.90;0.50;;;;;;;17.58;58.82;95875.81;10431789;28;20044;-31
2022/11/21 05:06:10;;;;;;;1.08;0.55;;;;;;;17.61;59.11;95874.94;10437373;28;20710;-31
2022/11/21 05:16:40;;;;;;;0.98;0.47;;;;;;;17.75;58.39;95875.66;10432723;28;20048;-30
2022/11/21 05:21:40;;;;;;;1.37;0.70;;;;;;;17.76;58.43;95879.84;10435288;28;20186;-30
2022/11/21 05:26:41;;;;;;;0.87;0.40;;;;;;;17.86;58.20;95881.44;10432368;28;20033;-30
2022/11/21 05:31:41;;;;;;;0.57;0.40;;;;;;;17.90;56.86;95880.56;10435458;28;20021;-30
2022/11/21 05:36:41;;;;;;;2.53;0.60;;;;;;;17.88;57.87;95884.78;10424574;28;20033;-30
2022/11/21 05:41:42;;;;;;;2.27;0.60;;;;;;;17.85;57.56;95885.69;10436478;28;20334;-30
2022/11/21 05:46:42;;;;;;;0.27;0.23;;;;;;;17.83;57.59;95887.38;10427799;28;20292;-30
2022/11/21 05:51:43;;;;;;;4.80;1.58;;;;;;;17.64;57.54;95880.81;10440857;28;20017;-30
2022/11/21 05:56:43;;;;;;;1.20;0.60;;;;;;;17.71;57.57;95887.50;10433359;28;20033;-30
2022/11/21 06:07:04;;;;;;;0.95;0.80;;;;;;;17.79;57.24;95879.81;10433818;28;20291;-29
2022/11/21 06:12:05;;;;;;;1.40;0.70;;;;;;;17.80;57.42;95886.56;10439970;28;20458;-30
2022/11/21 06:17:05;;;;;;;6.20;1.30;;;;;;;17.74;56.80;95886.63;10441372;28;20056;-30
2022/11/21 06:22:05;;;;;;;1.67;0.97;;;;;;;17.73;57.54;95875.66;10425927;28;20036;-29
2022/11/21 06:27:06;;;;;;;1.60;1.00;;;;;;;17.71;57.27;95868.94;10439230;28;20043;-30
2022/11/21 06:32:06;;;;;;;10.87;5.20;;;;;;;17.78;54.71;95880.69;10428572;28;20026;-29
2022/11/21 06:37:06;;;;;;;9.70;6.38;;;;;;;17.56;52.20;95872.47;10429414;28;20279;-30
2022/11/21 06:42:07;;;;;;;9.00;5.77;;;;;;;17.61;53.72;95863.16;10432890;28;20040;-29
2022/11/21 06:47:07;;;;;;;7.97;4.73;;;;;;;17.65;55.37;95864.78;10424992;28;20029;-29
2022/11/21 06:52:07;;;;;;;8.90;4.33;;;;;;;17.65;56.13;95861.44;10433359;28;20029;-31
2022/11/21 06:57:08;;;;;;;8.27;3.93;;;;;;;17.67;56.24;95870.66;10431824;28;20037;-31
2022/11/21 07:02:12;;;;;;;6.40;3.80;;;;;;;17.63;56.69;95863.97;10433859;28;20086;-30
2022/11/21 07:07:12;;;;;;;5.60;2.97;;;;;;;17.63;56.60;95858.03;10433412;28;20479;-29
2022/11/21 07:17:32;;;;;;;7.10;2.90;;;;;;;17.63;57.19;95847.94;10434962;28;20034;-29
2022/11/21 07:22:32;;;;;;;6.13;2.57;;;;;;;17.62;57.29;95841.19;10425075;28;20037;-29
2022/11/21 07:27:32;;;;;;;3.23;2.20;;;;;;;17.59;57.20;95837.00;10435578;28;20453;-30
2022/11/21 07:32:33;;;;;;;4.23;2.20;;;;;;;17.60;57.39;95832.78;10431731;28;20088;-30
2022/11/21 07:37:37;;;;;;;4.63;2.20;;;;;;;17.60;57.21;95837.84;10442761;28;20053;-31
2022/11/21 07:42:37;;;;;;;4.65;2.03;;;;;;;17.69;57.21;95827.63;10441741;28;20642;-30
2022/11/21 07:47:38;;;;;;;4.00;2.00;;;;;;;17.74;57.39;95833.47;10438907;28;20112;-30
2022/11/21 07:52:38;;;;;;;3.83;2.10;;;;;;;17.71;57.44;95833.50;10440531;28;20029;-29
2022/11/21 07:57:39;;;;;;;3.17;1.73;;;;;;;17.66;57.21;95835.25;10440223;28;20430;-30
2022/11/21 08:02:39;;;;;;;2.83;1.67;;;;;;;17.58;57.51;95816.78;10432899;28;20039;-30
2022/11/21 08:07:39;;;;;;;2.67;1.60;;;;;;;17.58;57.30;95839.56;10438800;28;20032;-30
2022/11/21 08:12:40;;;;;;;2.53;1.57;;;;;;;17.57;57.56;95823.53;10443816;28;20025;-29
2022/11/21 08:17:40;;;;;;;2.60;1.50;;;;;;;17.53;57.92;95831.16;10439193;28;20040;-29
2022/11/21 08:22:41;;;;;;;1.40;1.27;;;;;;;17.52;57.55;95820.22;10429339;28;20791;-31
2022/11/21 08:27:41;;;;;;;2.97;1.55;;;;;;;17.51;57.52;95813.47;10440180;28;20287;-30
2022/11/21 08:32:42;;;;;;;2.95;1.52;;;;;;;17.53;57.56;95813.44;10428725;28;20037;-30
2022/11/21 08:37:42;;;;;;;3.67;1.43;;;;;;;17.51;57.46;95805.03;10435033;28;20032;-29
2022/11/21 08:42:42;;;;;;;2.27;1.37;;;;;;;17.50;57.75;95808.44;10437195;28;20048;-30
2022/11/21 08:47:43;;;;;;;2.90;1.30;;;;;;;17.49;57.94;95805.06;10430302;28;20033;-30
2022/11/21 08:52:43;;;;;;;4.25;1.48;;;;;;;17.61;57.86;95788.91;10436843;28;20390;-29
2022/11/21 08:57:44;;;;;;;4.07;1.37;;;;;;;17.65;57.98;95796.44;10434179;28;20033;-29
2022/11/21 09:02:44;;;;;;;2.03;1.03;;;;;;;17.56;57.92;95772.94;10437655;28;20657;-30
2022/11/21 09:07:44;;;;;;;2.47;1.37;;;;;;;17.55;57.64;95782.22;10433518;28;20034;-31
2022/11/21 09:12:45;;;;;;;2.70;1.30;;;;;;;17.51;57.37;95769.63;10439220;28;20288;-30
2022/11/21 09:18:03;;;;;;;2.93;1.63;;;;;;;17.53;57.40;95760.31;10437298;28;20037;-30
2022/11/21 09:23:05;;;;;;;1.92;1.20;;;;;;;17.50;57.67;95757.81;10427558;28;20393;-30
2022/11/21 09:28:08;;;;;;;1.40;1.10;;;;;;;17.51;57.78;95756.97;10438801;28;20040;-30
2022/11/21 09:33:13;;;;;;;2.35;1.45;;;;;;;17.34;57.71;95726.75;10428939;28;20184;-30
2022/11/21 09:38:13;;;;;;;2.83;1.13;;;;;;;17.51;57.69;95729.13;10435337;28;20114;-30
2022/11/21 09:43:34;;;;;;;3.17;1.37;;;;;;;17.51;57.48;95706.34;10435715;28;20100;-30
2022/11/21 09:48:46;;;;;;;1.70;1.00;;;;;;;17.50;57.45;95699.63;10427891;28;20472;-29
2022/11/21 09:54:01;;;;;;;3.47;0.82;;;;;;;17.51;57.20;95696.22;10428009;28;20036;-30
2022/11/21 09:59:28;;;;;;;1.80;0.90;;;;;;;17.52;57.30;95692.84;10435834;28;20034;-29
2022/11/21 10:04:29;;;;;;;1.80;0.82;;;;;;;17.59;57.71;95689.38;10430783;28;20033;-30
2022/11/21 10:09:41;;;;;;;2.55;1.40;;;;;;;17.63;57.75;95683.41;10434895;28;20025;-30
2022/11/21 10:14:56;;;;;;;3.67;1.00;;;;;;;17.57;57.48;95674.22;10438138;28;20522;-29
2022/11/21 10:20:09;;;;;;;4.10;1.52;;;;;;;17.50;57.78;95666.72;10427634;28;20091;-29
2022/11/21 10:25:18;;;;;;;3.30;1.33;;;;;;;17.50;57.59;95659.97;10432320;28;20036;-30
2022/11/21 10:30:20;;;;;;;2.88;1.20;;;;;;;17.50;57.65;95641.44;10433406;28;20507;-30
2022/11/21 10:35:24;;;;;;;2.53;1.10;;;;;;;17.47;57.60;95623.75;10431757;28;20384;-30
2022/11/21 10:40:40;;;;;;;2.42;1.05;;;;;;;17.46;57.32;95607.75;10430052;28;20034;-29
2022/11/21 10:45:40;;;;;;;3.58;1.30;;;;;;;17.42;57.41;95602.75;10428022;28;20416;-30
2022/11/21 10:51:11;;;;;;;2.05;1.30;;;;;;;17.45;57.42;95590.03;10437640;28;20036;-30
2022/11/21 10:56:18;;;;;;;3.95;1.20;;;;;;;17.43;57.59;95576.59;10433678;28;20258;-30
2022/11/21 11:01:20;;;;;;;3.92;1.00;;;;;;;17.46;57.37;95561.34;10428508;28;20065;-30
2022/11/21 11:06:28;;;;;;;1.52;0.98;;;;;;;17.47;57.16;95557.97;10436129;28;20041;-30
2022/11/21 11:11:28;;;;;;;2.25;1.02;;;;;;;17.47;57.02;95517.47;10444781;28;20024;-30
2022/11/21 11:16:31;;;;;;;3.08;1.10;;;;;;;17.63;56.89;95513.84;10443820;28;20029;-30
2022/11/21 11:21:38;;;;;;;1.10;0.80;;;;;;;17.63;57.03;95508.78;10439468;28;20044;-30
2022/11/21 11:26:48;;;;;;;1.50;0.90;;;;;;;17.61;56.58;95481.00;10437347;28;20094;-29
2022/11/21 11:31:54;;;;;;;1.48;0.85;;;;;;;17.57;56.33;95468.41;10438876;28;20079;-30
2022/11/21 11:37:00;;;;;;;2.10;0.87;;;;;;;17.64;56.25;95468.28;10438570;28;20544;-29
2022/11/21 11:47:58;;;;;;;1.65;0.85;;;;;;;17.63;56.27;95436.25;10435234;28;20052;-28
2022/11/21 11:53:20;;;;;;;2.95;1.15;;;;;;;17.51;55.65;95413.66;10439279;28;20025;-30
2022/11/21 11:58:39;;;;;;;3.22;0.90;;;;;;;17.49;55.91;95401.94;10438221;28;20112;-29
2022/11/21 12:03:49;;;;;;;4.95;1.92;;;;;;;17.52;56.18;95379.94;10443038;28;20033;-29
2022/11/21 12:08:57;;;;;;;3.95;1.55;;;;;;;17.50;56.31;95381.63;10435596;28;20110;-30
2022/11/21 12:14:06;;;;;;;2.38;1.00;;;;;;;17.49;56.08;95369.84;10443537;28;20037;-30
2022/11/21 12:19:13;;;;;;;1.52;0.77;;;;;;;17.45;56.06;95342.94;10444000;28;20136;-31
2022/11/21 12:24:13;;;;;;;3.13;0.93;;;;;;;17.63;54.76;95329.09;10433270;28;20120;-29
2022/11/21 12:29:22;;;;;;;2.72;0.88;;;;;;;17.66;54.51;95311.34;10440872;28;20043;-30
2022/11/21 12:34:35;;;;;;;1.88;0.80;;;;;;;17.60;55.75;95287.00;10428515;28;20041;-29
2022/11/21 12:40:05;;;;;;;2.85;1.02;;;;;;;17.55;55.77;95285.41;10428953;28;20037;-29
2022/11/21 12:45:41;;;;;;;1.92;0.90;;;;;;;17.51;56.03;95255.97;10436375;28;20021;-29
2022/11/21 12:56:43;;;;;;;4.38;1.33;;;;;;;17.61;55.47;95237.22;10434549;28;20033;-29
2022/11/21 13:01:53;;;;;;;3.37;1.00;;;;;;;17.65;55.47;95234.59;10430587;28;20057;-30
2022/11/21 13:06:56;;;;;;;5.10;1.20;;;;;;;17.58;52.64;95222.09;10437744;28;20033;-29
2022/11/21 13:12:21;;;;;;;12.82;1.50;;;;;;;17.56;55.81;95214.53;10441343;28;20039;-30
2022/11/21 13:17:24;;;;;;;7.22;1.50;;;;;;;17.57;56.23;95203.53;10435299;28;20024;-29
2022/11/21 13:22:36;;;;;;;5.75;1.60;;;;;;;17.55;56.51;95182.50;10430269;28;20064;-29
2022/11/21 13:27:37;;;;;;;6.03;1.42;;;;;;;17.57;56.47;95174.91;10431189;28;20033;-29
2022/11/21 13:32:45;;;;;;;3.13;1.10;;;;;;;17.60;56.44;95165.56;10428176;28;20021;-30
2022/11/21 13:37:48;;;;;;;6.43;1.23;;;;;;;17.66;56.40;95157.81;10420905;28;20060;-29
2022/11/21 13:43:08;;;;;;;3.95;1.02;;;;;;;17.67;56.24;95144.28;10438359;28;20079;-30
2022/11/21 13:48:25;;;;;;;2.10;1.17;;;;;;;17.62;56.42;95132.59;10426390;28;20543;-29
2022/11/21 13:53:28;;;;;;;2.40;1.25;;;;;;;17.61;56.69;95128.41;10418261;28;20028;-30
2022/11/21 13:58:47;;;;;;;2.05;1.35;;;;;;;17.60;56.92;95124.22;10431050;28;20037;-30
2022/11/21 14:04:08;;;;;;;3.92;1.05;;;;;;;17.60;57.33;95093.84;10437880;28;20029;-29
2022/11/21 14:09:11;;;;;;;1.38;0.63;;;;;;;17.58;57.41;95072.81;10435422;28;20032;-29
2022/11/21 14:14:42;;;;;;;5.80;1.23;;;;;;;17.56;57.00;95060.19;10437084;28;20029;-29
2022/11/21 14:19:42;;;;;;;4.68;1.08;;;;;;;17.54;57.23;95041.69;10426452;28;20048;-29
2022/11/21 14:24:44;;;;;;;2.47;1.20;;;;;;;17.56;57.02;95021.44;10432300;28;20049;-30
2022/11/21 14:29:44;;;;;;;3.50;1.08;;;;;;;17.56;57.12;95017.19;10434202;28;20488;-29
2022/11/21 14:34:44;;;;;;;2.33;1.10;;;;;;;17.53;57.21;94996.19;10431852;28;20029;-29
2022/11/21 14:39:46;;;;;;;2.27;0.90;;;;;;;17.56;57.04;94970.81;10442125;28;20271;-30
2022/11/21 14:45:05;;;;;;;2.03;1.00;;;;;;;17.62;57.35;94970.66;10441669;28;20041;-30
2022/11/21 14:50:28;;;;;;;2.72;1.25;;;;;;;17.66;57.39;94982.38;10440531;28;20029;-29
2022/11/21 14:55:30;;;;;;;2.67;1.52;;;;;;;17.65;56.54;94978.19;10439948;28;20545;-31
2022/11/21 15:00:31;;;;;;;2.28;1.40;;;;;;;17.60;57.04;94975.78;10433197;28;20065;-30
2022/11/21 15:05:33;;;;;;;4.53;1.20;;;;;;;17.56;57.14;94955.66;10436808;28;20111;-29
2022/11/21 15:10:34;;;;;;;2.33;1.25;;;;;;;17.51;57.21;94957.44;10438211;28;20033;-29
2022/11/21 15:15:42;;;;;;;2.22;1.20;;;;;;;17.54;57.13;94942.19;10443639;28;20530;-29
2022/11/21 15:20:52;;;;;;;2.03;1.10;;;;;;;17.56;57.10;94945.53;10431109;28;20072;-30
2022/11/21 15:25:53;;;;;;;3.92;1.20;;;;;;;17.54;57.02;94927.00;10442701;28;20037;-29
2022/11/21 15:31:20;;;;;;;2.40;1.30;;;;;;;17.54;56.96;94922.78;10439440;28;20045;-29
2022/11/21 15:36:20;;;;;;;3.03;1.27;;;;;;;17.52;57.38;94893.31;10432746;28;20041;-29
2022/11/21 15:41:31;;;;;;;4.15;1.35;;;;;;;17.52;57.14;94868.88;10440010;28;20048;-29
2022/11/21 15:46:42;;;;;;;3.95;1.13;;;;;;;17.52;57.20;94862.97;10438044;28;20029;-30
2022/11/21 15:51:44;;;;;;;3.20;1.05;;;;;;;17.55;57.09;94856.13;10439517;28;20031;-30
2022/11/21 15:56:46;;;;;;;2.97;1.38;;;;;;;17.56;57.14;94849.38;10438655;28;20079;-29
2022/11/21 16:01:46;;;;;;;9.20;1.63;;;;;;;17.69;56.57;94850.69;10438898;28;20041;-29
2022/11/21 16:06:46;;;;;;;6.50;1.53;;;;;;;17.70;56.92;94840.56;10437532;28;20484;-30
2022/11/21 16:11:47;;;;;;;2.50;1.30;;;;;;;17.71;56.50;94823.66;10443497;28;20033;-29
2022/11/21 16:16:47;;;;;;;7.10;1.60;;;;;;;17.65;56.79;94813.72;10434742;28;20340;-31
2022/11/21 16:21:47;;;;;;;3.70;1.40;;;;;;;17.70;56.29;94811.88;10432167;28;20589;-30
2022/11/21 16:26:52;;;;;;;5.77;1.60;;;;;;;17.65;56.81;94793.47;10440932;28;20339;-29
2022/11/21 16:31:54;;;;;;;5.20;1.40;;;;;;;17.64;56.94;94796.84;10443698;28;20029;-29
2022/11/21 16:36:55;;;;;;;2.38;1.33;;;;;;;17.62;57.05;94783.41;10434974;28;20037;-30
2022/11/21 16:41:55;;;;;;;1.67;1.30;;;;;;;17.68;56.73;94781.53;10435413;28;20037;-28
2022/11/21 16:46:55;;;;;;;4.33;1.40;;;;;;;17.66;56.82;94778.22;10436277;28;20138;-28
2022/11/21 16:51:57;;;;;;;4.65;1.50;;;;;;;17.68;56.20;94758.75;10435706;28;20291;-29
2022/11/21 16:56:58;;;;;;;2.78;1.08;;;;;;;17.71;56.33;94778.94;10425088;28;20454;-29
2022/11/21 17:01:58;;;;;;;4.27;1.30;;;;;;;17.63;56.40;94782.53;10433000;28;20050;-29
2022/11/21 17:06:59;;;;;;;2.70;1.13;;;;;;;17.71;56.00;94788.22;10437389;28;20057;-29
2022/11/21 17:12:00;;;;;;;2.03;0.90;;;;;;;17.77;55.35;94793.13;10443781;28;20275;-29
2022/11/21 17:17:00;;;;;;;4.00;1.50;;;;;;;17.77;55.35;94796.50;10438897;28;20479;-29
2022/11/21 17:22:00;;;;;;;2.23;1.40;;;;;;;17.75;56.24;94794.88;10428274;28;20037;-29
2022/11/21 17:27:01;;;;;;;5.00;1.33;;;;;;;17.61;55.78;94795.25;10437162;28;20040;-29
2022/11/21 17:32:02;;;;;;;4.13;1.92;;;;;;;17.67;56.65;94801.84;10433848;28;20091;-29
2022/11/21 17:37:02;;;;;;;4.18;1.75;;;;;;;17.65;56.69;94798.53;10427523;28;20033;-29
2022/11/21 17:42:03;;;;;;;2.90;1.73;;;;;;;17.61;56.97;94781.75;10434556;28;20399;-29
2022/11/21 17:47:03;;;;;;;5.30;2.20;;;;;;;17.58;57.01;94785.19;10438150;28;20033;-29
2022/11/21 17:52:05;;;;;;;6.03;2.33;;;;;;;17.58;56.94;94776.78;10433862;28;20653;-28
2022/11/21 17:57:05;;;;;;;4.65;2.30;;;;;;;17.67;56.15;94786.66;10432361;28;20330;-29
2022/11/21 18:02:06;;;;;;;4.20;2.65;;;;;;;17.71;56.66;94768.81;10430165;28;20037;-29
2022/11/21 18:07:06;;;;;;;5.53;3.33;;;;;;;17.74;55.52;94752.72;10430304;28;20032;-29
2022/11/21 18:12:07;;;;;;;13.15;7.40;;;;;;;17.70;56.59;94757.03;10435903;28;20353;-30
2022/11/21 18:17:07;;;;;;;17.00;8.73;;;;;;;17.66;56.17;94757.16;10428658;28;20742;-29
2022/11/21 18:22:07;;;;;;;15.03;9.10;;;;;;;17.64;56.89;94763.94;10424397;28;20036;-30
2022/11/21 18:27:08;;;;;;;15.03;8.40;;;;;;;17.66;56.75;94775.69;10435788;28;20346;-29
2022/11/21 18:32:08;;;;;;;16.20;9.05;;;;;;;17.64;56.71;94772.38;10427411;28;20026;-29
2022/11/21 18:37:09;;;;;;;14.13;9.70;;;;;;;17.63;56.81;94778.31;10432131;28;20032;-29
2022/11/21 18:42:09;;;;;;;16.60;9.95;;;;;;;17.65;56.87;94776.56;10434035;28;20036;-29
2022/11/21 18:47:10;;;;;;;13.40;8.53;;;;;;;17.73;55.64;94781.44;10428964;28;20426;-28
2022/11/21 18:52:10;;;;;;;23.77;13.03;;;;;;;17.71;57.44;94783.16;10432997;28;20287;-29
2022/11/21 18:57:11;;;;;;;15.00;9.57;;;;;;;17.81;55.02;94790.47;10430149;28;20033;-29
2022/11/21 19:02:11;;;;;;;17.55;10.05;;;;;;;17.71;55.40;94771.34;10427518;28;20648;-29
2022/11/21 19:07:11;;;;;;;17.83;9.52;;;;;;;17.80;54.72;94798.09;10391457;28;20039;-29
2022/11/21 19:12:12;;;;;;;14.80;8.97;;;;;;;17.73;55.46;94791.56;10433799;28;20483;-31
2022/11/21 19:17:12;;;;;;;21.07;11.97;;;;;;;17.66;57.23;94787.53;10428367;28;20095;-28
2022/11/21 19:22:13;;;;;;;21.43;11.77;;;;;;;17.75;55.27;94769.56;10428746;28;20025;-28
2022/11/21 19:27:13;;;;;;;16.63;10.07;;;;;;;17.78;55.96;94764.41;10437649;28;20029;-30
2022/11/21 19:32:14;;;;;;;15.20;8.80;;;;;;;17.80;55.33;94752.53;10444663;28;20029;-30
2022/11/21 19:37:14;;;;;;;14.88;8.38;;;;;;;17.82;54.62;94753.34;10442271;28;20434;-30
2022/11/21 19:42:15;;;;;;;12.80;8.93;;;;;;;17.82;54.86;94750.81;10438571;28;20029;-31
2022/11/21 19:47:15;;;;;;;15.02;9.15;;;;;;;17.90;54.82;94748.88;10445742;28;20279;-34
2022/11/21 19:52:15;;;;;;;11.40;7.67;;;;;;;17.84;54.75;94736.41;10437694;28;20033;-28
2022/11/21 19:57:16;;;;;;;12.80;8.50;;;;;;;17.81;54.90;94718.75;10439441;28;20029;-30
2022/11/21 20:02:18;;;;;;;14.43;8.07;;;;;;;17.76;55.73;94723.13;10447458;28;20033;-30
2022/11/21 20:07:18;;;;;;;12.40;7.55;;;;;;;17.75;55.11;94696.19;10435838;28;20027;-32
2022/11/21 20:12:19;;;;;;;10.00;6.22;;;;;;;17.63;55.04;94706.63;10452331;28;20025;-33
2022/11/21 20:17:19;;;;;;;12.07;8.88;;;;;;;17.63;56.68;94711.69;10438632;28;20031;-33
2022/11/21 20:22:20;;;;;;;15.10;9.33;;;;;;;17.67;56.45;94713.28;10439789;28;20087;-29
2022/11/21 20:27:20;;;;;;;15.57;10.40;;;;;;;17.69;56.62;94724.19;10437561;28;20647;-29
2022/11/21 20:32:21;;;;;;;20.37;12.57;;;;;;;17.71;57.06;94717.38;10442526;28;20029;-29
2022/11/21 20:37:21;;;;;;;12.13;9.07;;;;;;;17.72;54.97;94708.91;10435719;28;20447;-30
2022/11/21 20:42:21;;;;;;;15.00;9.60;;;;;;;17.79;56.21;94672.41;10428486;28;20353;-31
2022/11/21 20:47:22;;;;;;;17.97;11.63;;;;;;;17.85;56.52;94683.22;10435611;28;20302;-29
2022/11/21 20:52:22;;;;;;;19.20;12.52;;;;;;;17.80;57.15;94687.56;10435796;28;20052;-29
2022/11/21 20:57:22;;;;;;;18.60;12.10;;;;;;;17.75;57.79;94689.41;10445369;28;20414;-30
2022/11/21 21:02:23;;;;;;;15.50;10.23;;;;;;;17.74;57.73;94686.94;10439454;28;20298;-29
2022/11/21 21:07:23;;;;;;;17.23;10.73;;;;;;;17.75;57.70;94686.06;10425552;28;20110;-30
2022/11/21 21:12:24;;;;;;;15.53;9.93;;;;;;;17.73;57.99;94692.88;10446168;28;20131;-29
2022/11/21 21:17:25;;;;;;;15.07;9.57;;;;;;;17.71;58.31;94694.59;10432133;28;20764;-31
2022/11/21 21:22:27;;;;;;;14.17;9.67;;;;;;;17.70;58.07;94698.84;10437106;28;20048;-31
2022/11/21 21:27:27;;;;;;;14.57;8.60;;;;;;;17.72;57.61;94704.69;10437910;28;20044;-30
2022/11/21 21:32:28;;;;;;;13.17;8.70;;;;;;;17.69;57.75;94707.31;10433442;28;20491;-29
2022/11/21 21:37:28;;;;;;;12.53;7.50;;;;;;;17.75;57.62;94696.19;10435224;28;20513;-29
2022/11/21 21:42:28;;;;;;;13.00;8.77;;;;;;;17.79;58.03;94692.66;10438434;28;20040;-29
2022/11/21 21:47:29;;;;;;;12.33;8.27;;;;;;;17.75;58.18;94709.63;10434478;28;20055;-29
2022/11/21 21:52:29;;;;;;;10.63;7.47;;;;;;;17.68;57.50;94717.47;10437030;28;20021;-29
2022/11/21 21:57:29;;;;;;;12.53;7.87;;;;;;;17.65;58.06;94717.56;10436237;28;20654;-29
2022/11/21 22:02:30;;;;;;;10.20;7.28;;;;;;;17.62;58.27;94702.44;10434195;28;20025;-30
2022/11/21 22:07:30;;;;;;;9.87;7.03;;;;;;;17.63;57.63;94697.34;10427044;28;20037;-29
2022/11/21 22:12:31;;;;;;;13.40;7.35;;;;;;;17.64;57.77;94703.22;10443723;28;20024;-30
2022/11/21 22:17:31;;;;;;;9.97;6.27;;;;;;;17.62;58.38;94712.56;10435071;28;20037;-31
2022/11/21 22:22:32;;;;;;;10.43;6.07;;;;;;;17.62;58.33;94722.69;10436343;28;20037;-29
2022/11/21 22:27:32;;;;;;;9.47;6.60;;;;;;;17.62;58.29;94717.63;10436446;28;20040;-30
2022/11/21 22:32:32;;;;;;;9.07;6.30;;;;;;;17.60;58.25;94691.56;10432431;28;20026;-29
2022/11/21 22:37:33;;;;;;;8.67;5.57;;;;;;;17.62;58.23;94702.44;10432789;28;20044;-29
2022/11/21 22:42:33;;;;;;;8.77;5.70;;;;;;;17.69;58.02;94703.94;10435210;28;20037;-30
2022/11/21 22:47:33;;;;;;;8.90;6.03;;;;;;;17.73;58.02;94711.41;10430385;28;20094;-29
2022/11/21 22:52:34;;;;;;;10.23;5.67;;;;;;;17.69;58.35;94716.59;10434741;28;20474;-30
2022/11/21 22:57:34;;;;;;;6.07;4.90;;;;;;;17.63;58.30;94720.13;10434052;28;20515;-30
2022/11/21 23:02:34;;;;;;;8.93;4.90;;;;;;;17.63;58.67;94716.75;10432702;28;20394;-30
2022/11/21 23:07:35;;;;;;;6.67;4.57;;;;;;;17.61;58.27;94710.91;10436418;28;20513;-29
2022/11/21 23:12:35;;;;;;;7.93;4.97;;;;;;;17.61;58.10;94701.63;10451625;28;20116;-29
2022/11/21 23:17:36;;;;;;;9.77;5.10;;;;;;;17.60;58.23;94686.50;10442990;28;20391;-29
2022/11/21 23:22:36;;;;;;;8.48;4.95;;;;;;;17.56;57.78;94673.09;10442299;28;20302;-30
2022/11/21 23:27:36;;;;;;;8.07;5.00;;;;;;;17.58;58.26;94665.47;10440324;28;20040;-29
2022/11/21 23:32:37;;;;;;;12.63;3.73;;;;;;;17.57;57.90;94684.06;10443393;28;20041;-29
2022/11/21 23:37:37;;;;;;;8.07;4.57;;;;;;;17.57;58.33;94679.00;10442110;28;20043;-30
2022/11/21 23:42:37;;;;;;;5.57;4.40;;;;;;;17.61;58.13;94683.09;10444270;28;20033;-30
2022/11/21 23:47:38;;;;;;;5.20;3.90;;;;;;;17.66;58.14;94678.72;10442223;28;20045;-30
2022/11/21 23:52:38;;;;;;;7.53;3.90;;;;;;;17.70;58.29;94686.19;10444457;28;20029;-31
2022/11/21 23:57:39;;;;;;;5.37;3.07;;;;;;;17.65;57.61;94697.31;10446455;28;20280;-29
